createdAt,value
2019-04-28T00:04:48.192Z,16.77
2019-04-28T00:07:35.768Z,14.17
2019-04-28T00:10:23.247Z,15.97
2019-04-28T00:13:11.148Z,18.47
2019-04-28T00:15:58.722Z,17.40
2019-04-28T00:18:46.220Z,20.03
2019-04-28T00:21:52.716Z,18.67
2019-04-28T00:24:56.997Z,12.70
2019-04-28T00:27:46.838Z,14.20
2019-04-28T00:30:36.455Z,16.17
2019-04-28T00:33:24.385Z,10.63
2019-04-28T00:36:12.169Z,15.67
2019-04-28T00:41:57.483Z,12.67
2019-04-28T00:44:44.949Z,13.47
2019-04-28T00:50:27.301Z,13.87
2019-04-28T00:53:15.003Z,16.63
2019-04-28T00:56:02.558Z,13.60
2019-04-28T00:58:51.400Z,14.80
2019-04-28T01:02:01.300Z,16.50
2019-04-28T01:04:48.781Z,16.27
2019-04-28T01:07:36.334Z,13.07
2019-04-28T01:10:24.487Z,11.53
2019-04-28T01:13:12.039Z,20.37
2019-04-28T01:24:50.670Z,17.57
2019-04-28T01:34:19.860Z,17.30
2019-04-28T01:37:26.565Z,18.73
2019-04-28T01:40:14.121Z,17.60
2019-04-28T01:43:04.144Z,11.60
2019-04-28T01:45:52.122Z,18.07
2019-04-28T01:48:40.701Z,14.50
2019-04-28T01:54:15.651Z,15.33
2019-04-28T01:57:03.357Z,20.63
2019-04-28T02:05:31.658Z,10.90
2019-04-28T02:08:20.303Z,16.33
2019-04-28T02:11:09.964Z,18.53
2019-04-28T02:13:59.695Z,15.43
2019-04-28T02:16:54.728Z,18.13
2019-04-28T02:19:42.251Z,13.50
2019-04-28T02:22:37.195Z,16.00
2019-04-28T02:31:44.956Z,19.80
2019-04-28T02:34:43.585Z,16.40
2019-04-28T02:37:31.110Z,17.60
2019-04-28T02:40:20.744Z,19.87
2019-04-28T02:43:11.254Z,12.47
2019-04-28T02:45:57.758Z,12.70
2019-04-28T02:48:47.256Z,16.57
2019-04-28T02:54:35.500Z,15.67
2019-04-28T02:57:23.131Z,14.93
2019-04-28T03:00:10.557Z,13.07
2019-04-28T03:03:01.047Z,16.20
2019-04-28T03:05:51.254Z,12.57
2019-04-28T03:08:40.540Z,13.63
2019-04-28T03:11:27.979Z,13.33
2019-04-28T03:14:15.459Z,16.60
2019-04-28T03:17:02.933Z,15.60
2019-04-28T03:19:51.632Z,17.47
2019-04-28T03:22:40.852Z,14.07
2019-04-28T03:28:41.777Z,18.90
2019-04-28T03:34:43.838Z,16.17
2019-04-28T03:37:34.884Z,12.77
2019-04-28T03:40:22.307Z,13.80
2019-04-28T03:43:14.356Z,19.17
2019-04-28T03:46:10.535Z,11.90
2019-04-28T03:49:00.970Z,16.67
2019-04-28T03:54:33.938Z,15.27
2019-04-28T03:57:22.064Z,13.73
2019-04-28T04:00:11.229Z,14.93
2019-04-28T04:03:00.794Z,12.63
2019-04-28T04:05:50.491Z,16.07
2019-04-28T04:08:37.111Z,13.40
2019-04-28T04:14:55.302Z,16.27
2019-04-28T04:17:41.956Z,14.97
2019-04-28T04:20:31.038Z,22.80
2019-04-28T04:23:23.172Z,18.17
2019-04-28T04:26:11.643Z,15.80
2019-04-28T04:29:01.100Z,17.63
2019-04-28T04:31:51.142Z,15.30
2019-04-28T04:34:40.673Z,14.67
2019-04-28T04:37:30.925Z,19.13
2019-04-28T04:40:20.963Z,12.00
2019-04-28T04:43:11.107Z,13.17
2019-04-28T04:46:16.527Z,9.63
2019-04-28T04:49:04.098Z,15.27
2019-04-28T04:51:51.566Z,16.57
2019-04-28T04:54:40.174Z,15.33
2019-04-28T04:57:32.384Z,14.73
2019-04-28T05:06:41.230Z,15.43
2019-04-28T05:09:29.337Z,12.63
2019-04-28T05:12:17.497Z,15.40
2019-04-28T05:15:06.729Z,15.53
2019-04-28T05:17:54.192Z,14.10
2019-04-28T05:20:41.839Z,11.90
2019-04-28T05:23:49.285Z,18.07
2019-04-28T05:26:42.507Z,19.30
2019-04-28T05:29:27.870Z,11.03
2019-04-28T05:32:15.990Z,14.70
2019-04-28T05:35:04.350Z,14.53
2019-04-28T05:37:51.940Z,14.20
2019-04-28T05:41:00.299Z,11.53
2019-04-28T05:43:47.610Z,15.00
2019-04-28T05:46:35.067Z,11.43
2019-04-28T05:49:41.547Z,14.20
2019-04-28T05:55:59.939Z,10.57
2019-04-28T06:08:12.999Z,11.17
2019-04-28T06:11:00.396Z,13.73
2019-04-28T06:14:06.756Z,14.37
2019-04-28T06:16:57.043Z,8.47
2019-04-28T06:19:38.060Z,12.07
2019-04-28T06:22:26.030Z,13.40
2019-04-28T06:28:38.801Z,16.60
2019-04-28T06:31:27.216Z,8.90
2019-04-28T06:37:39.151Z,8.20
2019-04-28T06:40:26.742Z,12.47
2019-04-28T06:43:14.467Z,9.17
2019-04-28T06:46:01.937Z,8.73
2019-04-28T06:48:49.405Z,12.27
2019-04-28T06:51:36.879Z,8.30
2019-04-28T06:54:24.367Z,9.10
2019-04-28T06:57:11.876Z,9.37
2019-04-28T07:03:10.400Z,13.27
2019-04-28T07:05:56.703Z,10.03
2019-04-28T07:08:44.490Z,16.97
2019-04-28T07:11:32.018Z,10.50
2019-04-28T07:14:22.835Z,12.33
2019-04-28T07:17:10.326Z,13.37
2019-04-28T07:22:51.749Z,9.13
2019-04-28T07:25:42.427Z,7.47
2019-04-28T07:31:36.570Z,11.03
2019-04-28T07:34:17.851Z,11.77
2019-04-28T07:37:05.813Z,14.17
2019-04-28T07:39:53.302Z,11.73
2019-04-28T07:42:41.032Z,12.83
2019-04-28T07:45:31.840Z,11.50
2019-04-28T07:48:19.368Z,13.67
2019-04-28T07:51:06.892Z,11.53
2019-04-28T07:56:51.654Z,8.00
2019-04-28T07:59:39.107Z,6.63
2019-04-28T08:02:27.615Z,9.97
2019-04-28T08:05:15.100Z,8.77
2019-04-28T08:08:02.636Z,10.53
2019-04-28T08:10:51.278Z,9.13
2019-04-28T08:13:38.778Z,12.03
2019-04-28T08:16:26.719Z,10.83
2019-04-28T08:19:14.292Z,9.47
2019-04-28T08:22:01.823Z,9.47
2019-04-28T08:24:49.333Z,7.33
2019-04-28T08:27:36.882Z,8.03
2019-04-28T08:30:25.411Z,13.83
2019-04-28T08:33:33.256Z,7.53
2019-04-28T08:36:23.189Z,14.00
2019-04-28T08:39:14.095Z,9.87
2019-04-28T08:45:09.256Z,10.70
2019-04-28T08:57:22.471Z,12.07
2019-04-28T09:00:10.449Z,6.97
2019-04-28T09:02:57.980Z,8.47
2019-04-28T09:05:48.242Z,9.37
2019-04-28T09:08:35.829Z,8.10
2019-04-28T09:11:23.292Z,6.70
2019-04-28T09:17:06.046Z,9.67
2019-04-28T09:19:53.906Z,7.33
2019-04-28T09:25:48.097Z,7.23
2019-04-28T09:28:36.067Z,7.50
2019-04-28T09:31:42.458Z,6.40
2019-04-28T09:34:29.902Z,5.50
2019-04-28T09:37:20.530Z,9.10
2019-04-28T09:43:38.172Z,6.23
2019-04-28T09:49:34.588Z,3.00
2019-04-28T09:52:21.061Z,3.73
2019-04-28T09:55:04.602Z,2.83
2019-04-28T10:01:01.878Z,2.37
2019-04-28T10:03:49.565Z,2.90
2019-04-28T10:06:37.374Z,4.50
2019-04-28T10:09:24.752Z,5.40
2019-04-28T10:12:12.236Z,6.17
2019-04-28T10:15:03.350Z,4.70
2019-04-28T10:17:51.752Z,5.50
2019-04-28T10:20:39.246Z,6.60
2019-04-28T10:23:28.870Z,5.90
2019-04-28T10:26:14.860Z,6.67
2019-04-28T10:29:02.422Z,6.73
2019-04-28T10:32:08.781Z,6.30
2019-04-28T10:34:57.264Z,6.17
2019-04-28T10:37:45.629Z,10.13
2019-04-28T10:40:34.776Z,9.77
2019-04-28T10:46:32.209Z,6.30
2019-04-28T10:52:14.916Z,8.57
2019-04-28T10:57:57.195Z,4.80
2019-04-28T11:00:45.749Z,5.53
2019-04-28T11:03:33.839Z,6.77
2019-04-28T11:12:32.781Z,3.33
2019-04-28T11:15:39.103Z,2.60
2019-04-28T11:18:26.879Z,7.97
2019-04-28T11:21:18.596Z,2.97
2019-04-28T11:24:07.428Z,3.13
2019-04-28T11:26:57.923Z,2.10
2019-04-28T11:29:52.811Z,4.33
2019-04-28T11:35:32.240Z,2.43
2019-04-28T11:38:18.521Z,2.73
2019-04-28T11:41:06.287Z,3.27
2019-04-28T11:43:56.413Z,3.03
2019-04-28T11:46:44.771Z,4.37
2019-04-28T11:49:32.281Z,3.20
2019-04-28T11:52:19.951Z,5.03
2019-04-28T11:55:10.424Z,5.53
2019-04-28T11:58:00.882Z,2.30
2019-04-28T12:06:50.965Z,2.90
2019-04-28T12:09:41.187Z,2.27
2019-04-28T12:12:47.556Z,3.07
2019-04-28T12:15:56.731Z,2.50
2019-04-28T12:24:53.035Z,2.73
2019-04-28T12:27:40.567Z,2.03
2019-04-28T12:30:28.350Z,1.80
2019-04-28T12:33:16.009Z,1.60
2019-04-28T12:39:06.782Z,1.87
2019-04-28T12:41:54.545Z,2.00
2019-04-28T12:44:42.049Z,2.23
2019-04-28T12:47:28.333Z,1.37
2019-04-28T12:50:34.665Z,1.77
2019-04-28T12:56:24.041Z,1.30
2019-04-28T13:02:42.548Z,2.20
2019-04-28T13:05:31.604Z,1.23
2019-04-28T13:08:19.171Z,1.87
2019-04-28T13:11:06.755Z,4.07
2019-04-28T13:13:54.245Z,1.20
2019-04-28T13:16:42.024Z,2.07
2019-04-28T13:19:29.892Z,1.80
2019-04-28T13:22:16.692Z,2.07
2019-04-28T13:25:05.952Z,0.97
2019-04-28T13:27:53.661Z,0.97
2019-04-28T13:30:41.281Z,1.00
2019-04-28T13:33:55.759Z,1.80
2019-04-28T13:36:35.750Z,2.60
2019-04-28T13:42:38.168Z,1.83
2019-04-28T13:45:26.105Z,1.73
2019-04-28T13:48:13.649Z,1.53
2019-04-28T13:51:01.134Z,1.20
2019-04-28T13:53:48.637Z,1.63
2019-04-28T13:56:36.127Z,3.33
2019-04-28T13:59:23.917Z,5.30
2019-04-28T14:05:45.332Z,3.40
2019-04-28T14:08:33.886Z,3.10
2019-04-28T14:14:26.389Z,2.00
2019-04-28T14:17:13.941Z,4.20
2019-04-28T14:23:08.631Z,3.57
2019-04-28T14:25:58.247Z,3.13
2019-04-28T14:28:46.057Z,1.67
2019-04-28T14:31:37.025Z,1.33
2019-04-28T14:46:22.665Z,1.97
2019-04-28T14:49:10.395Z,7.10
2019-04-28T14:51:58.004Z,2.00
2019-04-28T14:54:45.623Z,2.10
2019-04-28T14:57:33.127Z,1.90
2019-04-28T15:03:33.209Z,6.93
2019-04-28T15:09:38.663Z,2.90
2019-04-28T15:12:26.130Z,2.87
2019-04-28T15:15:13.706Z,7.57
2019-04-28T15:18:01.195Z,2.73
2019-04-28T15:20:48.624Z,2.37
2019-04-28T15:23:36.023Z,1.57
2019-04-28T15:26:25.595Z,1.83
2019-04-28T15:29:13.123Z,1.50
2019-04-28T15:32:01.448Z,1.67
2019-04-28T15:34:49.278Z,9.57
2019-04-28T15:37:36.789Z,1.40
2019-04-28T15:40:24.614Z,1.40
2019-04-28T15:43:12.025Z,3.20
2019-04-28T15:46:18.428Z,1.97
2019-04-28T15:49:08.039Z,1.80
2019-04-28T15:51:55.713Z,3.23
2019-04-28T15:54:43.234Z,2.57
2019-04-28T15:57:30.916Z,1.47
2019-04-28T16:00:18.341Z,2.03
2019-04-28T16:03:05.929Z,2.13
2019-04-28T16:05:53.494Z,1.50
2019-04-28T16:08:41.060Z,1.57
2019-04-28T16:11:31.056Z,0.70
2019-04-28T16:14:18.852Z,1.57
2019-04-28T16:17:06.413Z,4.20
2019-04-28T16:19:53.926Z,1.37
2019-04-28T16:22:46.717Z,1.30
2019-04-28T16:25:35.868Z,1.53
2019-04-28T16:28:23.377Z,2.93
2019-04-28T16:31:10.842Z,2.60
2019-04-28T16:34:00.621Z,1.73
2019-04-28T16:36:48.071Z,5.97
2019-04-28T16:39:35.560Z,2.50
2019-04-28T16:45:28.892Z,1.73
2019-04-28T16:48:16.339Z,6.60
2019-04-28T16:51:03.821Z,1.03
2019-04-28T16:53:51.502Z,3.63
2019-04-28T16:59:59.470Z,2.97
2019-04-28T17:02:49.659Z,11.93
2019-04-28T17:08:16.434Z,1.50
2019-04-28T17:11:04.282Z,1.27
2019-04-28T17:13:51.872Z,1.43
2019-04-28T17:16:39.611Z,2.40
2019-04-28T17:19:27.099Z,3.20
2019-04-28T17:22:14.685Z,2.83
2019-04-28T17:25:02.221Z,0.80
2019-04-28T17:30:56.347Z,1.00
2019-04-28T17:33:44.100Z,3.83
2019-04-28T17:36:31.544Z,26.17
2019-04-28T17:39:37.925Z,3.93
2019-04-28T17:42:25.370Z,1.27
2019-04-28T17:45:15.664Z,1.43
2019-04-28T17:51:16.957Z,2.47
2019-04-28T17:54:04.408Z,1.40
2019-04-28T17:56:52.006Z,1.70
2019-04-28T17:59:39.505Z,3.67
2019-04-28T18:02:45.745Z,3.13
2019-04-28T18:05:41.180Z,1.77
2019-04-28T18:08:32.981Z,1.30
2019-04-28T18:14:15.638Z,0.80
2019-04-28T18:17:22.126Z,7.13
2019-04-28T18:20:09.755Z,2.97
2019-04-28T18:22:57.291Z,1.17
2019-04-28T18:28:27.955Z,1.90
2019-04-28T18:34:43.393Z,1.93
2019-04-28T18:37:49.770Z,2.53
2019-04-28T18:40:56.232Z,3.13
2019-04-28T18:44:02.554Z,4.57
2019-04-28T18:46:52.616Z,4.43
2019-04-28T18:49:40.142Z,3.00
2019-04-28T18:52:27.859Z,2.57
2019-04-28T18:55:34.282Z,2.70
2019-04-28T18:58:21.813Z,2.03
2019-04-28T19:01:28.175Z,3.10
2019-04-28T19:04:15.779Z,3.30
2019-04-28T19:13:05.813Z,2.10
2019-04-28T19:16:12.171Z,3.20
2019-04-28T19:21:57.196Z,1.70
2019-04-28T19:24:44.762Z,2.83
2019-04-28T19:27:32.246Z,3.00
2019-04-28T19:30:20.362Z,2.23
2019-04-28T19:33:03.691Z,1.37
2019-04-28T19:35:51.227Z,2.33
2019-04-28T19:38:38.838Z,2.47
2019-04-28T19:41:26.446Z,2.63
2019-04-28T19:44:13.882Z,5.03
2019-04-28T19:47:01.448Z,2.47
2019-04-28T19:49:49.167Z,2.07
2019-04-28T19:52:39.748Z,2.50
2019-04-28T19:58:56.680Z,4.43
2019-04-28T20:01:44.395Z,4.33
2019-04-28T20:04:31.964Z,3.00
2019-04-28T20:07:19.480Z,3.23
2019-04-28T20:10:07.154Z,3.23
2019-04-28T20:12:54.732Z,3.93
2019-04-28T20:15:42.289Z,3.60
2019-04-28T20:18:29.891Z,3.43
2019-04-28T20:21:19.434Z,3.30
2019-04-28T20:24:06.873Z,2.13
2019-04-28T20:26:54.456Z,2.90
2019-04-28T20:29:42.584Z,2.90
2019-04-28T20:38:42.853Z,3.07
2019-04-28T20:41:30.623Z,2.23
2019-04-28T20:44:18.087Z,2.50
2019-04-28T20:47:05.642Z,2.30
2019-04-28T20:49:53.144Z,6.33
2019-04-28T20:52:40.724Z,2.70
2019-04-28T20:55:28.218Z,2.27
2019-04-28T20:58:15.723Z,2.13
2019-04-28T21:01:03.208Z,3.17
2019-04-28T21:03:50.709Z,4.73
2019-04-28T21:06:38.262Z,4.83
2019-04-28T21:09:26.701Z,4.40
2019-04-28T21:12:14.471Z,5.70
2019-04-28T21:15:02.088Z,4.77
2019-04-28T21:17:50.856Z,3.73
2019-04-28T21:20:38.443Z,4.70
2019-04-28T21:23:26.097Z,4.00
2019-04-28T21:26:13.606Z,4.07
2019-04-28T21:29:01.087Z,3.40
2019-04-28T21:31:48.728Z,4.50
2019-04-28T21:37:38.574Z,4.17
2019-04-28T21:46:59.086Z,3.00
2019-04-28T21:49:46.553Z,5.33
2019-04-28T21:52:34.147Z,3.40
2019-04-28T21:55:21.667Z,3.80
2019-04-28T22:01:15.539Z,4.27
2019-04-28T22:07:11.566Z,3.80
2019-04-28T22:10:01.380Z,3.50
2019-04-28T22:12:48.962Z,4.63
2019-04-28T22:15:36.488Z,3.63
2019-04-28T22:18:23.988Z,5.53
2019-04-28T22:21:11.692Z,5.30
2019-04-28T22:24:18.123Z,2.93
2019-04-28T22:27:06.036Z,3.47
2019-04-28T22:29:53.587Z,4.73
2019-04-28T22:32:41.111Z,5.33
2019-04-28T22:35:28.666Z,3.60
2019-04-28T22:38:17.875Z,4.10
2019-04-28T22:41:05.377Z,5.97
2019-04-28T22:43:52.816Z,5.43
2019-04-28T22:46:40.242Z,3.70
2019-04-28T22:49:28.962Z,3.77
2019-04-28T22:52:16.431Z,3.97
2019-04-28T22:55:11.990Z,3.13
2019-04-28T22:58:18.355Z,4.03
2019-04-28T23:01:25.240Z,5.57
2019-04-28T23:04:31.592Z,4.33
2019-04-28T23:07:19.893Z,4.83
2019-04-28T23:10:09.056Z,4.27
2019-04-28T23:12:56.586Z,3.47
2019-04-28T23:15:44.115Z,6.03
2019-04-28T23:18:50.497Z,3.67
2019-04-28T23:24:46.592Z,4.57
2019-04-28T23:27:34.065Z,5.27
2019-04-28T23:30:21.535Z,4.17
2019-04-28T23:33:09.020Z,4.37
2019-04-28T23:35:56.487Z,3.57
2019-04-28T23:38:45.957Z,3.23
2019-04-28T23:41:52.464Z,6.33
2019-04-28T23:44:48.674Z,3.93
2019-04-28T23:47:36.355Z,13.70
2019-04-28T23:53:42.767Z,6.33
2019-04-28T23:56:30.294Z,11.37
2019-04-28T23:59:17.979Z,4.73
